createdAt,value
2022-11-29T04:39:18.385Z,48.20
2022-11-29T04:42:23.752Z,42.70
2022-11-29T04:45:31.622Z,47.80
2022-11-29T04:48:21.288Z,48.80
2022-11-29T04:51:05.131Z,49.10
2022-11-29T04:53:53.332Z,46.10
2022-11-29T04:56:38.086Z,51.50
2022-11-29T04:59:19.493Z,60.10
2022-11-29T05:02:04.041Z,67.30
2022-11-29T05:04:47.356Z,68.30
2022-11-29T05:07:30.692Z,70.40
2022-11-29T05:10:15.269Z,69.90
2022-11-29T05:12:57.496Z,75.10
2022-11-29T05:15:56.008Z,73.70
2022-11-29T05:18:49.990Z,76.80
2022-11-29T05:21:31.972Z,74.60
2022-11-29T05:24:18.644Z,68.90
2022-11-29T05:26:57.233Z,70.10
2022-11-29T05:29:40.179Z,68.30
2022-11-29T05:32:30.477Z,67.50
2022-11-29T05:35:27.829Z,68.50
2022-11-29T05:38:09.783Z,64.40
2022-11-29T05:40:54.216Z,72.00
2022-11-29T05:43:38.848Z,66.10
2022-11-29T05:46:19.875Z,71.20
2022-11-29T05:49:00.083Z,74.20
2022-11-29T05:51:43.433Z,76.10
2022-11-29T05:54:26.330Z,72.90
2022-11-29T05:57:09.110Z,71.00
2022-11-29T05:59:43.243Z,73.20
2022-11-29T06:02:30.145Z,69.70
2022-11-29T06:05:16.557Z,64.90
2022-11-29T06:07:55.113Z,64.70
2022-11-29T06:10:34.302Z,65.10
2022-11-29T06:13:18.868Z,55.70
2022-11-29T06:16:25.156Z,49.90
2022-11-29T06:19:42.760Z,49.80
2022-11-29T06:22:31.739Z,44.80
2022-11-29T06:25:21.879Z,41.30
2022-11-29T06:28:11.383Z,40.40
2022-11-29T06:30:54.341Z,37.90
2022-11-29T06:33:31.854Z,36.40
2022-11-29T06:36:16.266Z,38.70
2022-11-29T06:38:48.984Z,35.90
2022-11-29T06:41:24.668Z,36.10
2022-11-29T06:43:58.144Z,36.00
2022-11-29T06:46:39.785Z,34.60
2022-11-29T06:54:01.565Z,37.60
2022-11-29T07:05:44.605Z,40.40
2022-11-29T07:08:20.129Z,37.90
2022-11-29T07:11:51.094Z,37.80
2022-11-29T07:31:58.618Z,43.00
2022-11-29T07:47:46.976Z,41.40
2022-11-29T07:50:20.219Z,34.20
2022-11-29T07:52:59.127Z,36.70
2022-11-29T07:55:33.170Z,37.60
2022-11-29T07:58:13.996Z,39.80
2022-11-29T08:01:10.860Z,40.50
2022-11-29T08:03:50.243Z,39.40
2022-11-29T08:10:53.193Z,39.80
2022-11-29T08:13:31.874Z,39.60
2022-11-29T08:20:36.761Z,38.60
2022-11-29T08:27:58.859Z,33.70
2022-11-29T08:30:32.557Z,31.90
2022-11-29T08:33:12.346Z,29.30
2022-11-29T08:35:44.523Z,27.50
2022-11-29T08:38:22.886Z,28.80
2022-11-29T08:50:25.792Z,29.00
2022-11-29T08:53:43.225Z,30.90
2022-11-29T09:00:04.230Z,31.50
2022-11-29T09:02:39.542Z,30.30
2022-11-29T09:06:18.159Z,32.20
2022-11-29T09:08:59.314Z,31.60
2022-11-29T09:12:21.788Z,31.20
2022-11-29T09:15:00.084Z,33.40
2022-11-29T09:17:32.331Z,33.60
2022-11-29T09:20:12.966Z,32.70
2022-11-29T09:22:45.790Z,31.60
2022-11-29T09:25:24.247Z,34.30
2022-11-29T09:27:58.539Z,34.20
2022-11-29T09:30:38.440Z,34.40
2022-11-29T09:38:04.670Z,33.80
2022-11-29T09:58:55.285Z,35.20
2022-11-29T10:27:46.344Z,34.80
2022-11-29T10:30:19.596Z,34.40
2022-11-29T10:33:01.438Z,39.30
2022-11-29T10:45:25.320Z,33.00
2022-11-29T10:53:18.907Z,36.90
2022-11-29T11:22:26.719Z,28.90
2022-11-29T11:25:50.205Z,31.00
2022-11-29T11:33:22.583Z,31.60
2022-11-29T11:44:53.694Z,37.80
2022-11-29T11:55:02.680Z,36.50
2022-11-29T12:02:53.032Z,29.30
2022-11-29T12:05:32.386Z,26.60
2022-11-29T12:08:08.142Z,28.20
2022-11-29T12:15:59.555Z,30.90
2022-11-29T12:19:15.181Z,29.60
2022-11-29T12:31:15.002Z,30.80
2022-11-29T12:38:59.941Z,30.20
2022-11-29T13:17:55.593Z,31.40
2022-11-29T13:20:57.637Z,31.60
2022-11-29T13:37:12.057Z,30.70
2022-11-29T13:39:59.041Z,32.40
2022-11-29T13:42:42.034Z,32.10
2022-11-29T13:45:24.328Z,33.10
2022-11-29T13:48:01.895Z,36.20
2022-11-29T13:50:44.487Z,35.40
2022-11-29T13:53:21.580Z,37.20
2022-11-29T13:56:00.767Z,40.10
2022-11-29T13:58:42.333Z,40.00
2022-11-29T14:01:17.651Z,32.50
2022-11-29T14:04:01.784Z,39.90
2022-11-29T14:06:38.553Z,45.50
2022-11-29T14:09:34.227Z,38.70
2022-11-29T14:12:20.593Z,30.30
2022-11-29T14:14:57.668Z,33.20
2022-11-29T14:17:47.763Z,38.40
2022-11-29T14:23:42.238Z,32.40
2022-11-29T14:26:31.470Z,48.70
2022-11-29T14:29:23.585Z,41.80
2022-11-29T14:31:56.923Z,40.60
2022-11-29T14:34:39.018Z,48.60
2022-11-29T14:37:23.531Z,103.30
2022-11-29T14:39:59.158Z,43.40
2022-11-29T14:42:32.413Z,35.90
2022-11-29T14:45:07.028Z,36.70
2022-11-29T14:47:49.279Z,40.00
2022-11-29T14:50:32.908Z,40.70
2022-11-29T14:53:06.644Z,41.40
2022-11-29T14:55:40.079Z,42.20
2022-11-29T14:58:24.191Z,42.50
2022-11-29T15:01:11.158Z,43.60
2022-11-29T15:03:50.744Z,42.50
2022-11-29T15:06:29.090Z,42.90
2022-11-29T15:09:05.770Z,48.80
2022-11-29T15:11:49.608Z,63.00
2022-11-29T15:14:29.943Z,60.10
2022-11-29T15:17:18.866Z,51.90
2022-11-29T15:20:26.086Z,47.50
2022-11-29T15:23:05.344Z,47.10
2022-11-29T15:25:47.187Z,46.60
2022-11-29T15:28:25.119Z,42.80
2022-11-29T15:34:27.938Z,54.90
2022-11-29T15:37:00.402Z,54.60
2022-11-29T15:39:35.168Z,56.80
2022-11-29T15:42:13.543Z,48.70
2022-11-29T15:44:52.520Z,54.60
2022-11-29T15:47:26.134Z,70.60
2022-11-29T15:49:58.373Z,74.40
2022-11-29T15:52:36.435Z,56.80
2022-11-29T15:55:15.515Z,52.10
2022-11-29T15:57:51.648Z,60.30
2022-11-29T16:00:25.790Z,60.20
2022-11-29T16:03:04.515Z,50.80
2022-11-29T16:05:38.476Z,47.20
2022-11-29T16:08:15.803Z,56.10
2022-11-29T16:10:53.121Z,54.50
2022-11-29T16:13:43.175Z,59.70
2022-11-29T16:16:18.422Z,57.10
2022-11-29T16:18:51.826Z,48.60
2022-11-29T16:21:29.638Z,45.10
2022-11-29T16:24:12.248Z,46.10
2022-11-29T16:26:47.310Z,46.60
2022-11-29T16:29:28.192Z,46.60
2022-11-29T16:32:00.656Z,47.50
2022-11-29T16:34:34.023Z,49.80
2022-11-29T16:37:08.691Z,45.10
2022-11-29T16:39:41.353Z,45.40
2022-11-29T16:42:25.019Z,40.10
2022-11-29T16:45:30.419Z,41.70
2022-11-29T16:48:03.247Z,39.90
2022-11-29T16:50:35.900Z,37.60
2022-11-29T16:53:37.330Z,42.10
2022-11-29T16:56:14.075Z,43.10
2022-11-29T16:59:24.618Z,42.10
2022-11-29T17:01:41.518Z,44.80
2022-11-29T17:04:23.372Z,40.30
2022-11-29T17:06:57.876Z,35.70
2022-11-29T17:09:32.638Z,34.90
2022-11-29T17:12:12.914Z,34.50
2022-11-29T17:14:45.345Z,37.50
2022-11-29T17:17:20.216Z,40.30
2022-11-29T17:19:52.391Z,39.70
2022-11-29T17:22:24.577Z,40.50
2022-11-29T17:24:56.725Z,40.70
2022-11-29T17:27:28.933Z,44.60
2022-11-29T17:30:00.975Z,42.40
2022-11-29T17:32:34.250Z,38.80
2022-11-29T17:35:06.964Z,40.50
2022-11-29T17:37:39.081Z,36.80
2022-11-29T17:40:15.401Z,37.80
2022-11-29T17:42:48.581Z,36.20
2022-11-29T17:45:20.764Z,37.00
2022-11-29T17:47:53.005Z,34.00
2022-11-29T17:50:25.243Z,37.20
2022-11-29T17:52:57.299Z,39.20
2022-11-29T17:55:29.870Z,38.10
2022-11-29T17:58:02.363Z,37.00
2022-11-29T18:00:35.023Z,37.40
2022-11-29T18:03:07.420Z,37.50
2022-11-29T18:05:39.552Z,38.70
2022-11-29T18:08:11.694Z,34.90
2022-11-29T18:10:43.784Z,39.30
2022-11-29T18:13:15.852Z,38.50
2022-11-29T18:15:47.967Z,41.20
2022-11-29T18:18:20.151Z,40.50
2022-11-29T18:20:52.475Z,50.10
2022-11-29T18:23:24.660Z,43.50
2022-11-29T18:26:06.020Z,52.10
2022-11-29T18:28:39.881Z,38.90
2022-11-29T18:31:13.886Z,34.20
2022-11-29T18:33:49.027Z,37.10
2022-11-29T18:36:23.012Z,35.80
2022-11-29T18:38:59.401Z,35.30
2022-11-29T18:41:32.782Z,34.50
2022-11-29T18:44:08.118Z,35.20
2022-11-29T18:46:41.648Z,33.00
2022-11-29T18:49:15.130Z,32.70
2022-11-29T18:51:48.635Z,32.00
2022-11-29T18:54:21.165Z,32.60
2022-11-29T18:56:53.626Z,37.40
2022-11-29T18:59:26.110Z,31.60
2022-11-29T19:01:58.395Z,34.90
2022-11-29T19:04:30.593Z,37.20
2022-11-29T19:07:02.708Z,37.60
2022-11-29T19:09:34.791Z,35.00
2022-11-29T19:12:09.726Z,33.60
2022-11-29T19:14:46.588Z,35.60
2022-11-29T19:17:25.482Z,34.00
2022-11-29T19:19:57.650Z,32.10
2022-11-29T19:22:30.196Z,32.80
2022-11-29T19:25:02.447Z,31.30
2022-11-29T19:27:34.663Z,31.70
2022-11-29T19:30:08.319Z,36.10
2022-11-29T19:32:40.527Z,31.50
2022-11-29T19:35:12.939Z,31.50
2022-11-29T19:37:46.241Z,32.80
2022-11-29T19:40:18.918Z,32.70
2022-11-29T19:42:51.500Z,33.60
2022-11-29T19:45:23.655Z,31.80
2022-11-29T19:47:56.873Z,27.10
2022-11-29T19:50:29.219Z,32.60
2022-11-29T19:53:03.418Z,31.90
2022-11-29T19:55:39.376Z,32.80
2022-11-29T20:01:28.196Z,32.30
2022-11-29T20:04:01.204Z,32.50
2022-11-29T20:06:33.728Z,35.50
2022-11-29T20:09:06.474Z,31.00
2022-11-29T20:11:38.885Z,31.20
2022-11-29T20:14:15.288Z,33.20
2022-11-29T20:16:47.378Z,34.20
2022-11-29T20:19:20.086Z,35.10
2022-11-29T20:21:52.694Z,33.00
2022-11-29T20:24:24.788Z,33.80
2022-11-29T20:26:57.469Z,35.70
2022-11-29T20:29:32.778Z,34.00
2022-11-29T20:32:04.980Z,36.10
2022-11-29T20:34:38.595Z,34.50
2022-11-29T20:37:24.564Z,35.00
2022-11-29T20:40:01.680Z,35.40
2022-11-29T20:42:51.541Z,36.90
2022-11-29T20:45:25.558Z,37.60
2022-11-29T20:48:01.863Z,34.60
2022-11-29T20:50:35.315Z,33.80
2022-11-29T20:53:21.055Z,35.10
2022-11-29T20:55:53.178Z,33.90
2022-11-29T20:58:26.654Z,32.80
2022-11-29T21:00:59.021Z,36.50
2022-11-29T21:03:31.929Z,37.30
2022-11-29T21:06:07.163Z,37.20
2022-11-29T21:08:41.642Z,36.00
2022-11-29T21:11:16.222Z,34.70
2022-11-29T21:13:50.325Z,33.40
2022-11-29T21:16:31.137Z,37.90
2022-11-29T21:19:05.376Z,36.40
2022-11-29T21:21:44.687Z,34.00
2022-11-29T21:24:28.857Z,35.70
2022-11-29T21:27:05.793Z,33.70
2022-11-29T21:29:42.191Z,34.60
2022-11-29T21:32:23.899Z,34.30
2022-11-29T21:34:56.870Z,35.40
2022-11-29T21:37:32.136Z,37.40
2022-11-29T21:40:05.415Z,33.80
2022-11-29T21:42:38.599Z,34.50
2022-11-29T21:45:15.521Z,37.40
2022-11-29T21:47:53.978Z,33.70
2022-11-29T21:50:26.303Z,32.90
2022-11-29T21:52:58.552Z,31.80
2022-11-29T21:55:32.241Z,31.70
2022-11-29T21:58:07.007Z,32.40
2022-11-29T22:00:39.964Z,34.00
2022-11-29T22:03:18.560Z,37.30
2022-11-29T22:05:51.169Z,36.20
2022-11-29T22:08:23.686Z,38.60
2022-11-29T22:11:04.428Z,32.70
2022-11-29T22:13:37.272Z,31.70
2022-11-29T22:16:15.545Z,31.70
2022-11-29T22:18:48.031Z,34.20
2022-11-29T22:21:20.152Z,33.20
2022-11-29T22:23:52.821Z,32.00
2022-11-29T22:26:28.693Z,30.40
2022-11-29T22:29:03.143Z,34.00
2022-11-29T22:31:37.170Z,34.20
2022-11-29T22:34:09.367Z,35.10
2022-11-29T22:36:42.188Z,36.30
2022-11-29T22:39:14.989Z,32.70
2022-11-29T22:41:53.685Z,34.80
2022-11-29T22:44:26.856Z,33.60
2022-11-29T22:46:59.031Z,31.50
2022-11-29T22:49:33.298Z,29.70
2022-11-29T22:52:05.542Z,30.80
2022-11-29T22:54:37.699Z,28.10
2022-11-29T22:57:09.874Z,28.40
2022-11-29T22:59:42.090Z,28.10
2022-11-29T23:02:14.313Z,29.90
2022-11-29T23:04:46.952Z,32.00
2022-11-29T23:07:19.436Z,31.70
2022-11-29T23:09:51.542Z,29.80
2022-11-29T23:12:23.881Z,31.00
2022-11-29T23:14:56.773Z,27.50
2022-11-29T23:17:31.537Z,28.80
2022-11-29T23:20:03.678Z,31.60
2022-11-29T23:22:39.347Z,30.10
2022-11-29T23:25:13.930Z,31.20
2022-11-29T23:27:48.179Z,28.90
2022-11-29T23:30:22.835Z,29.20
2022-11-29T23:32:56.042Z,26.00
2022-11-29T23:35:30.686Z,27.10
2022-11-29T23:38:03.154Z,25.30
2022-11-29T23:40:38.506Z,27.30
2022-11-29T23:43:10.662Z,28.60
2022-11-29T23:45:43.497Z,28.50
2022-11-29T23:48:18.605Z,27.60
2022-11-29T23:50:53.893Z,27.60
2022-11-29T23:53:26.143Z,30.50
2022-11-29T23:56:03.941Z,28.10
2022-11-29T23:58:38.093Z,26.50
